sensor_id;sensor_type;location;lat;lon;timestamp;temperature;humidity
13982;DHT22;7065;50.880;5.502;2022-10-24T00:00:18;15.90;99.90
13982;DHT22;7065;50.880;5.502;2022-10-24T00:02:44;15.90;99.90
13982;DHT22;7065;50.880;5.502;2022-10-24T00:05:13;16.00;99.90
13982;DHT22;7065;50.880;5.502;2022-10-24T00:07:39;16.00;99.90
13982;DHT22;7065;50.880;5.502;2022-10-24T00:10:05;16.10;99.90
13982;DHT22;7065;50.880;5.502;2022-10-24T00:12:31;16.20;99.90
13982;DHT22;7065;50.880;5.502;2022-10-24T00:14:57;16.20;99.90
13982;DHT22;7065;50.880;5.502;2022-10-24T00:17:23;16.20;99.90
13982;DHT22;7065;50.880;5.502;2022-10-24T00:19:48;16.50;99.90
13982;DHT22;7065;50.880;5.502;2022-10-24T00:22:14;16.60;99.90
13982;DHT22;7065;50.880;5.502;2022-10-24T00:24:40;16.70;99.90
13982;DHT22;7065;50.880;5.502;2022-10-24T00:27:07;16.80;99.90
13982;DHT22;7065;50.880;5.502;2022-10-24T00:29:34;16.90;99.90
13982;DHT22;7065;50.880;5.502;2022-10-24T00:31:59;17.10;99.90
13982;DHT22;7065;50.880;5.502;2022-10-24T00:34:25;17.10;99.90
13982;DHT22;7065;50.880;5.502;2022-10-24T00:36:50;17.10;99.90
13982;DHT22;7065;50.880;5.502;2022-10-24T00:39:16;17.10;99.90
13982;DHT22;7065;50.880;5.502;2022-10-24T00:41:42;17.10;99.90
13982;DHT22;7065;50.880;5.502;2022-10-24T00:44:29;17.10;99.90
13982;DHT22;7065;50.880;5.502;2022-10-24T00:47:13;17.00;99.90
13982;DHT22;7065;50.880;5.502;2022-10-24T00:49:50;17.00;99.90
13982;DHT22;7065;50.880;5.502;2022-10-24T00:52:37;17.10;99.90
13982;DHT22;7065;50.880;5.502;2022-10-24T00:55:05;17.00;99.90
13982;DHT22;7065;50.880;5.502;2022-10-24T00:57:42;16.90;99.90
13982;DHT22;7065;50.880;5.502;2022-10-24T01:00:13;16.90;99.90
13982;DHT22;7065;50.880;5.502;2022-10-24T01:02:39;16.80;99.90
13982;DHT22;7065;50.880;5.502;2022-10-24T01:05:06;16.70;99.90
13982;DHT22;7065;50.880;5.502;2022-10-24T01:07:49;16.70;99.90
13982;DHT22;7065;50.880;5.502;2022-10-24T01:10:31;16.80;99.90
13982;DHT22;7065;50.880;5.502;2022-10-24T01:15:59;16.80;99.90
13982;DHT22;7065;50.880;5.502;2022-10-24T01:18:47;16.80;99.90
13982;DHT22;7065;50.880;5.502;2022-10-24T01:21:32;16.70;99.90
13982;DHT22;7065;50.880;5.502;2022-10-24T01:27:53;16.70;99.90
13982;DHT22;7065;50.880;5.502;2022-10-24T01:30:13;16.80;99.90
13982;DHT22;7065;50.880;5.502;2022-10-24T01:38:34;16.70;99.90
13982;DHT22;7065;50.880;5.502;2022-10-24T01:41:07;16.70;99.90
13982;DHT22;7065;50.880;5.502;2022-10-24T01:43:43;16.70;99.90
13982;DHT22;7065;50.880;5.502;2022-10-24T01:46:17;16.80;99.90
13982;DHT22;7065;50.880;5.502;2022-10-24T01:48:46;16.90;99.90
13982;DHT22;7065;50.880;5.502;2022-10-24T01:51:15;16.90;99.90
13982;DHT22;7065;50.880;5.502;2022-10-24T01:53:42;16.90;99.90
13982;DHT22;7065;50.880;5.502;2022-10-24T01:56:08;16.90;99.90
13982;DHT22;7065;50.880;5.502;2022-10-24T01:58:34;16.90;99.90
13982;DHT22;7065;50.880;5.502;2022-10-24T02:01:03;16.80;99.90
13982;DHT22;7065;50.880;5.502;2022-10-24T02:03:39;16.90;99.90
13982;DHT22;7065;50.880;5.502;2022-10-24T02:06:19;16.80;99.90
13982;DHT22;7065;50.880;5.502;2022-10-24T02:08:50;16.90;99.90
13982;DHT22;7065;50.880;5.502;2022-10-24T02:11:16;16.90;99.90
13982;DHT22;7065;50.880;5.502;2022-10-24T02:13:56;16.90;99.90
13982;DHT22;7065;50.880;5.502;2022-10-24T02:16:24;16.90;99.90
13982;DHT22;7065;50.880;5.502;2022-10-24T02:18:52;16.80;99.90
13982;DHT22;7065;50.880;5.502;2022-10-24T02:23:55;16.80;99.90
13982;DHT22;7065;50.880;5.502;2022-10-24T02:26:33;16.80;99.90
13982;DHT22;7065;50.880;5.502;2022-10-24T02:29:03;16.80;99.90
13982;DHT22;7065;50.880;5.502;2022-10-24T02:31:35;16.80;99.90
13982;DHT22;7065;50.880;5.502;2022-10-24T02:34:03;16.80;99.90
13982;DHT22;7065;50.880;5.502;2022-10-24T02:36:31;16.80;99.90
13982;DHT22;7065;50.880;5.502;2022-10-24T02:38:59;16.80;99.90
13982;DHT22;7065;50.880;5.502;2022-10-24T02:41:31;16.70;99.90
13982;DHT22;7065;50.880;5.502;2022-10-24T02:44:00;16.70;99.90
13982;DHT22;7065;50.880;5.502;2022-10-24T02:46:26;16.70;99.90
13982;DHT22;7065;50.880;5.502;2022-10-24T02:48:56;16.70;99.90
13982;DHT22;7065;50.880;5.502;2022-10-24T02:51:26;16.80;99.90
13982;DHT22;7065;50.880;5.502;2022-10-24T02:53:53;16.80;99.90
13982;DHT22;7065;50.880;5.502;2022-10-24T02:56:19;16.90;99.90
13982;DHT22;7065;50.880;5.502;2022-10-24T02:58:45;16.80;99.90
13982;DHT22;7065;50.880;5.502;2022-10-24T03:01:10;16.80;99.90
13982;DHT22;7065;50.880;5.502;2022-10-24T03:03:36;16.70;99.90
13982;DHT22;7065;50.880;5.502;2022-10-24T03:06:02;16.70;99.90
13982;DHT22;7065;50.880;5.502;2022-10-24T03:08:28;16.70;99.90
13982;DHT22;7065;50.880;5.502;2022-10-24T03:10:54;16.60;99.90
13982;DHT22;7065;50.880;5.502;2022-10-24T03:13:19;16.60;99.90
13982;DHT22;7065;50.880;5.502;2022-10-24T03:15:45;16.60;99.90
13982;DHT22;7065;50.880;5.502;2022-10-24T03:18:10;16.60;99.90
13982;DHT22;7065;50.880;5.502;2022-10-24T03:20:36;16.50;99.90
13982;DHT22;7065;50.880;5.502;2022-10-24T03:23:02;16.50;99.90
13982;DHT22;7065;50.880;5.502;2022-10-24T03:25:28;16.50;99.90
13982;DHT22;7065;50.880;5.502;2022-10-24T03:27:54;16.50;99.90
13982;DHT22;7065;50.880;5.502;2022-10-24T03:30:20;16.50;99.90
13982;DHT22;7065;50.880;5.502;2022-10-24T03:32:46;16.50;99.90
13982;DHT22;7065;50.880;5.502;2022-10-24T03:35:11;16.40;99.90
13982;DHT22;7065;50.880;5.502;2022-10-24T03:37:37;16.30;99.90
13982;DHT22;7065;50.880;5.502;2022-10-24T03:40:03;16.30;99.90
13982;DHT22;7065;50.880;5.502;2022-10-24T03:42:29;16.30;99.90
13982;DHT22;7065;50.880;5.502;2022-10-24T03:44:55;16.30;99.90
13982;DHT22;7065;50.880;5.502;2022-10-24T03:47:20;16.20;99.90
13982;DHT22;7065;50.880;5.502;2022-10-24T03:49:46;16.20;99.90
13982;DHT22;7065;50.880;5.502;2022-10-24T03:52:13;16.20;99.90
13982;DHT22;7065;50.880;5.502;2022-10-24T03:54:39;16.20;99.90
13982;DHT22;7065;50.880;5.502;2022-10-24T03:57:05;16.20;99.90
13982;DHT22;7065;50.880;5.502;2022-10-24T03:59:30;16.20;99.90
13982;DHT22;7065;50.880;5.502;2022-10-24T04:01:56;16.10;99.90
13982;DHT22;7065;50.880;5.502;2022-10-24T04:04:24;16.10;99.90
13982;DHT22;7065;50.880;5.502;2022-10-24T04:06:49;16.20;99.90
13982;DHT22;7065;50.880;5.502;2022-10-24T04:09:16;16.20;99.90
13982;DHT22;7065;50.880;5.502;2022-10-24T04:11:42;16.20;99.90
13982;DHT22;7065;50.880;5.502;2022-10-24T04:14:08;16.20;99.90
13982;DHT22;7065;50.880;5.502;2022-10-24T04:16:34;16.20;99.90
13982;DHT22;7065;50.880;5.502;2022-10-24T04:19:00;16.20;99.90
13982;DHT22;7065;50.880;5.502;2022-10-24T04:21:26;16.20;99.90
13982;DHT22;7065;50.880;5.502;2022-10-24T04:23:51;16.10;99.90
13982;DHT22;7065;50.880;5.502;2022-10-24T04:26:17;16.20;99.90
13982;DHT22;7065;50.880;5.502;2022-10-24T04:28:43;16.10;99.90
13982;DHT22;7065;50.880;5.502;2022-10-24T04:31:11;16.10;99.90
13982;DHT22;7065;50.880;5.502;2022-10-24T04:33:37;16.10;99.90
13982;DHT22;7065;50.880;5.502;2022-10-24T04:36:03;16.10;99.90
13982;DHT22;7065;50.880;5.502;2022-10-24T04:38:28;16.00;99.90
13982;DHT22;7065;50.880;5.502;2022-10-24T04:40:54;16.00;99.90
13982;DHT22;7065;50.880;5.502;2022-10-24T04:43:21;16.00;99.90
13982;DHT22;7065;50.880;5.502;2022-10-24T04:45:47;15.90;99.90
13982;DHT22;7065;50.880;5.502;2022-10-24T04:48:13;16.00;99.90
13982;DHT22;7065;50.880;5.502;2022-10-24T04:50:41;16.00;99.90
13982;DHT22;7065;50.880;5.502;2022-10-24T04:53:08;15.90;99.90
13982;DHT22;7065;50.880;5.502;2022-10-24T04:55:34;15.90;99.90
13982;DHT22;7065;50.880;5.502;2022-10-24T04:58:00;15.90;99.90
13982;DHT22;7065;50.880;5.502;2022-10-24T05:00:26;15.90;99.90
13982;DHT22;7065;50.880;5.502;2022-10-24T05:02:52;15.80;99.90
13982;DHT22;7065;50.880;5.502;2022-10-24T05:05:17;15.70;99.90
13982;DHT22;7065;50.880;5.502;2022-10-24T05:07:44;15.70;99.90
13982;DHT22;7065;50.880;5.502;2022-10-24T05:10:10;15.70;99.90
13982;DHT22;7065;50.880;5.502;2022-10-24T05:12:37;15.80;99.90
13982;DHT22;7065;50.880;5.502;2022-10-24T05:15:03;15.80;99.90
13982;DHT22;7065;50.880;5.502;2022-10-24T05:17:29;15.80;99.90
13982;DHT22;7065;50.880;5.502;2022-10-24T05:19:55;15.90;99.90
13982;DHT22;7065;50.880;5.502;2022-10-24T05:22:21;15.90;99.90
13982;DHT22;7065;50.880;5.502;2022-10-24T05:24:46;15.90;99.90
13982;DHT22;7065;50.880;5.502;2022-10-24T05:27:12;15.90;99.90
13982;DHT22;7065;50.880;5.502;2022-10-24T05:29:38;15.90;99.90
13982;DHT22;7065;50.880;5.502;2022-10-24T05:32:03;15.90;99.90
13982;DHT22;7065;50.880;5.502;2022-10-24T05:34:29;15.90;99.90
13982;DHT22;7065;50.880;5.502;2022-10-24T05:36:55;15.90;99.90
13982;DHT22;7065;50.880;5.502;2022-10-24T05:39:20;15.80;99.90
13982;DHT22;7065;50.880;5.502;2022-10-24T05:41:47;15.80;99.90
13982;DHT22;7065;50.880;5.502;2022-10-24T05:44:13;15.80;99.90
13982;DHT22;7065;50.880;5.502;2022-10-24T05:46:39;15.90;99.90
13982;DHT22;7065;50.880;5.502;2022-10-24T05:49:05;15.90;99.90
13982;DHT22;7065;50.880;5.502;2022-10-24T05:51:31;15.90;99.90
13982;DHT22;7065;50.880;5.502;2022-10-24T05:53:57;16.00;99.90
13982;DHT22;7065;50.880;5.502;2022-10-24T05:56:23;16.10;99.90
13982;DHT22;7065;50.880;5.502;2022-10-24T05:58:49;16.10;99.90
13982;DHT22;7065;50.880;5.502;2022-10-24T06:01:15;16.10;99.90
13982;DHT22;7065;50.880;5.502;2022-10-24T06:03:41;16.00;99.90
13982;DHT22;7065;50.880;5.502;2022-10-24T06:06:08;16.00;99.90
13982;DHT22;7065;50.880;5.502;2022-10-24T06:08:36;16.00;99.90
13982;DHT22;7065;50.880;5.502;2022-10-24T06:11:02;15.90;99.90
13982;DHT22;7065;50.880;5.502;2022-10-24T06:13:28;15.90;99.90
13982;DHT22;7065;50.880;5.502;2022-10-24T06:15:54;15.90;99.90
13982;DHT22;7065;50.880;5.502;2022-10-24T06:18:20;15.90;99.90
13982;DHT22;7065;50.880;5.502;2022-10-24T06:20:46;15.80;99.90
13982;DHT22;7065;50.880;5.502;2022-10-24T06:23:11;15.70;99.90
13982;DHT22;7065;50.880;5.502;2022-10-24T06:25:40;15.70;99.90
13982;DHT22;7065;50.880;5.502;2022-10-24T06:28:06;15.70;99.90
13982;DHT22;7065;50.880;5.502;2022-10-24T06:30:32;15.60;99.90
13982;DHT22;7065;50.880;5.502;2022-10-24T06:32:58;15.60;99.90
13982;DHT22;7065;50.880;5.502;2022-10-24T06:35:24;15.60;99.90
13982;DHT22;7065;50.880;5.502;2022-10-24T06:37:50;15.60;99.90
13982;DHT22;7065;50.880;5.502;2022-10-24T06:40:16;15.60;99.90
13982;DHT22;7065;50.880;5.502;2022-10-24T06:42:42;15.60;99.90
13982;DHT22;7065;50.880;5.502;2022-10-24T06:45:08;15.60;99.90
13982;DHT22;7065;50.880;5.502;2022-10-24T06:47:34;15.60;99.90
13982;DHT22;7065;50.880;5.502;2022-10-24T06:50:00;15.50;99.90
13982;DHT22;7065;50.880;5.502;2022-10-24T06:52:26;15.50;99.90
13982;DHT22;7065;50.880;5.502;2022-10-24T06:54:52;15.60;99.90
13982;DHT22;7065;50.880;5.502;2022-10-24T06:57:17;15.60;99.90
13982;DHT22;7065;50.880;5.502;2022-10-24T06:59:43;15.60;99.90
13982;DHT22;7065;50.880;5.502;2022-10-24T07:02:12;15.60;99.90
13982;DHT22;7065;50.880;5.502;2022-10-24T07:04:38;15.60;99.90
13982;DHT22;7065;50.880;5.502;2022-10-24T07:07:04;15.60;99.90
13982;DHT22;7065;50.880;5.502;2022-10-24T07:09:29;15.60;99.90
13982;DHT22;7065;50.880;5.502;2022-10-24T07:11:55;15.60;99.90
13982;DHT22;7065;50.880;5.502;2022-10-24T07:14:21;15.60;99.90
13982;DHT22;7065;50.880;5.502;2022-10-24T07:16:47;15.70;99.90
13982;DHT22;7065;50.880;5.502;2022-10-24T07:19:12;15.80;99.90
13982;DHT22;7065;50.880;5.502;2022-10-24T07:21:38;15.80;99.90
13982;DHT22;7065;50.880;5.502;2022-10-24T07:24:04;15.80;99.90
13982;DHT22;7065;50.880;5.502;2022-10-24T07:26:31;15.90;99.90
13982;DHT22;7065;50.880;5.502;2022-10-24T07:28:59;15.80;99.90
13982;DHT22;7065;50.880;5.502;2022-10-24T07:31:28;15.90;99.90
13982;DHT22;7065;50.880;5.502;2022-10-24T07:33:54;16.00;99.90
13982;DHT22;7065;50.880;5.502;2022-10-24T07:36:25;16.00;99.90
13982;DHT22;7065;50.880;5.502;2022-10-24T07:38:53;16.10;99.90
13982;DHT22;7065;50.880;5.502;2022-10-24T07:41:19;16.10;99.90
13982;DHT22;7065;50.880;5.502;2022-10-24T07:43:45;16.10;99.90
13982;DHT22;7065;50.880;5.502;2022-10-24T07:46:13;16.10;99.90
13982;DHT22;7065;50.880;5.502;2022-10-24T07:48:39;16.10;99.90
13982;DHT22;7065;50.880;5.502;2022-10-24T07:51:09;16.10;99.90
13982;DHT22;7065;50.880;5.502;2022-10-24T07:53:35;16.20;99.90
13982;DHT22;7065;50.880;5.502;2022-10-24T07:56:01;16.20;99.90
13982;DHT22;7065;50.880;5.502;2022-10-24T07:58:30;16.20;99.90
13982;DHT22;7065;50.880;5.502;2022-10-24T08:01:05;16.20;99.90
13982;DHT22;7065;50.880;5.502;2022-10-24T08:03:31;16.20;99.90
13982;DHT22;7065;50.880;5.502;2022-10-24T08:05:56;16.20;99.90
13982;DHT22;7065;50.880;5.502;2022-10-24T08:08:23;16.20;99.90
13982;DHT22;7065;50.880;5.502;2022-10-24T08:10:48;16.30;99.90
13982;DHT22;7065;50.880;5.502;2022-10-24T08:13:14;16.40;99.90
13982;DHT22;7065;50.880;5.502;2022-10-24T08:15:40;16.40;99.90
13982;DHT22;7065;50.880;5.502;2022-10-24T08:18:05;16.40;99.90
13982;DHT22;7065;50.880;5.502;2022-10-24T08:20:31;16.50;99.90
13982;DHT22;7065;50.880;5.502;2022-10-24T08:22:57;16.50;99.90
13982;DHT22;7065;50.880;5.502;2022-10-24T08:25:23;16.50;99.90
13982;DHT22;7065;50.880;5.502;2022-10-24T08:27:49;16.50;99.90
13982;DHT22;7065;50.880;5.502;2022-10-24T08:30:14;16.50;99.90
13982;DHT22;7065;50.880;5.502;2022-10-24T08:32:42;16.50;99.90
13982;DHT22;7065;50.880;5.502;2022-10-24T08:35:08;16.50;99.90
13982;DHT22;7065;50.880;5.502;2022-10-24T08:37:35;16.50;99.90
13982;DHT22;7065;50.880;5.502;2022-10-24T08:40:05;16.40;99.90
13982;DHT22;7065;50.880;5.502;2022-10-24T08:42:32;16.40;99.90
13982;DHT22;7065;50.880;5.502;2022-10-24T08:44:58;16.40;99.90
13982;DHT22;7065;50.880;5.502;2022-10-24T08:47:39;16.40;99.90
13982;DHT22;7065;50.880;5.502;2022-10-24T08:50:27;16.40;99.90
13982;DHT22;7065;50.880;5.502;2022-10-24T08:53:18;16.50;99.90
13982;DHT22;7065;50.880;5.502;2022-10-24T08:55:54;16.60;99.90
13982;DHT22;7065;50.880;5.502;2022-10-24T08:58:30;16.70;99.90
13982;DHT22;7065;50.880;5.502;2022-10-24T09:01:01;16.70;99.90
13982;DHT22;7065;50.880;5.502;2022-10-24T09:03:35;16.80;99.90
13982;DHT22;7065;50.880;5.502;2022-10-24T09:06:30;16.80;99.90
13982;DHT22;7065;50.880;5.502;2022-10-24T09:09:20;16.90;99.90
13982;DHT22;7065;50.880;5.502;2022-10-24T09:12:10;17.00;99.90
13982;DHT22;7065;50.880;5.502;2022-10-24T09:14:40;17.10;99.90
13982;DHT22;7065;50.880;5.502;2022-10-24T09:17:21;17.20;99.90
13982;DHT22;7065;50.880;5.502;2022-10-24T09:19:59;17.20;99.90
13982;DHT22;7065;50.880;5.502;2022-10-24T09:22:28;17.40;99.90
13982;DHT22;7065;50.880;5.502;2022-10-24T09:24:59;17.50;99.90
13982;DHT22;7065;50.880;5.502;2022-10-24T09:27:32;17.60;99.90
13982;DHT22;7065;50.880;5.502;2022-10-24T09:29:59;17.70;99.90
13982;DHT22;7065;50.880;5.502;2022-10-24T09:32:27;17.60;99.90
13982;DHT22;7065;50.880;5.502;2022-10-24T09:35:04;17.60;99.90
13982;DHT22;7065;50.880;5.502;2022-10-24T09:42:37;17.40;99.90
13982;DHT22;7065;50.880;5.502;2022-10-24T09:45:26;17.30;99.90
13982;DHT22;7065;50.880;5.502;2022-10-24T09:50:51;17.50;99.90
13982;DHT22;7065;50.880;5.502;2022-10-24T09:53:26;17.50;99.90
13982;DHT22;7065;50.880;5.502;2022-10-24T09:55:59;17.50;99.90
13982;DHT22;7065;50.880;5.502;2022-10-24T09:58:28;17.40;99.90
13982;DHT22;7065;50.880;5.502;2022-10-24T10:01:18;17.30;99.90
13982;DHT22;7065;50.880;5.502;2022-10-24T10:04:03;17.20;99.90
13982;DHT22;7065;50.880;5.502;2022-10-24T10:06:31;17.20;99.90
13982;DHT22;7065;50.880;5.502;2022-10-24T10:08:57;17.10;99.90
13982;DHT22;7065;50.880;5.502;2022-10-24T10:11:29;17.00;99.90
13982;DHT22;7065;50.880;5.502;2022-10-24T10:13:57;17.10;99.90
13982;DHT22;7065;50.880;5.502;2022-10-24T10:16:26;17.20;99.90
13982;DHT22;7065;50.880;5.502;2022-10-24T10:19:16;17.20;99.90
13982;DHT22;7065;50.880;5.502;2022-10-24T10:22:02;17.40;99.90
13982;DHT22;7065;50.880;5.502;2022-10-24T10:27:00;17.30;99.90
13982;DHT22;7065;50.880;5.502;2022-10-24T10:29:26;17.40;99.90
13982;DHT22;7065;50.880;5.502;2022-10-24T10:35:03;17.60;99.90
13982;DHT22;7065;50.880;5.502;2022-10-24T10:37:33;17.60;99.90
13982;DHT22;7065;50.880;5.502;2022-10-24T10:40:37;17.70;99.90
13982;DHT22;7065;50.880;5.502;2022-10-24T10:44:11;17.80;99.90
13982;DHT22;7065;50.880;5.502;2022-10-24T10:46:37;17.90;99.90
13982;DHT22;7065;50.880;5.502;2022-10-24T10:49:23;18.00;99.90
13982;DHT22;7065;50.880;5.502;2022-10-24T10:52:31;18.00;99.90
13982;DHT22;7065;50.880;5.502;2022-10-24T11:11:37;18.10;99.90
13982;DHT22;7065;50.880;5.502;2022-10-24T12:18:47;18.30;99.90
13982;DHT22;7065;50.880;5.502;2022-10-24T12:21:18;18.40;99.90
13982;DHT22;7065;50.880;5.502;2022-10-24T12:23:52;18.60;99.90
13982;DHT22;7065;50.880;5.502;2022-10-24T12:26:23;18.60;99.90
13982;DHT22;7065;50.880;5.502;2022-10-24T12:29:00;18.50;99.90
13982;DHT22;7065;50.880;5.502;2022-10-24T12:31:31;18.40;99.90
13982;DHT22;7065;50.880;5.502;2022-10-24T12:37:06;18.40;99.90
13982;DHT22;7065;50.880;5.502;2022-10-24T12:39:43;18.10;99.90
13982;DHT22;7065;50.880;5.502;2022-10-24T12:44:45;18.00;99.90
13982;DHT22;7065;50.880;5.502;2022-10-24T12:58:19;17.50;99.90
13982;DHT22;7065;50.880;5.502;2022-10-24T13:00:55;17.60;99.90
13982;DHT22;7065;50.880;5.502;2022-10-24T13:14:54;18.10;99.90
13982;DHT22;7065;50.880;5.502;2022-10-24T13:20:17;18.20;99.90
13982;DHT22;7065;50.880;5.502;2022-10-24T13:22:43;18.20;99.90
13982;DHT22;7065;50.880;5.502;2022-10-24T13:25:20;18.20;99.90
13982;DHT22;7065;50.880;5.502;2022-10-24T13:30:41;18.30;99.90
13982;DHT22;7065;50.880;5.502;2022-10-24T13:38:33;18.50;99.90
13982;DHT22;7065;50.880;5.502;2022-10-24T13:41:03;18.60;99.90
13982;DHT22;7065;50.880;5.502;2022-10-24T13:43:29;18.50;99.90
13982;DHT22;7065;50.880;5.502;2022-10-24T13:45:59;18.60;99.90
13982;DHT22;7065;50.880;5.502;2022-10-24T13:48:28;18.60;99.90
13982;DHT22;7065;50.880;5.502;2022-10-24T13:53:40;18.70;99.90
13982;DHT22;7065;50.880;5.502;2022-10-24T13:56:09;18.80;99.90
13982;DHT22;7065;50.880;5.502;2022-10-24T13:58:41;18.80;99.90
13982;DHT22;7065;50.880;5.502;2022-10-24T14:01:16;18.70;99.90
13982;DHT22;7065;50.880;5.502;2022-10-24T14:03:43;18.70;99.90
13982;DHT22;7065;50.880;5.502;2022-10-24T14:06:10;18.80;99.90
13982;DHT22;7065;50.880;5.502;2022-10-24T14:08:48;18.90;99.90
13982;DHT22;7065;50.880;5.502;2022-10-24T14:11:19;18.80;99.90
13982;DHT22;7065;50.880;5.502;2022-10-24T14:13:52;18.70;99.90
13982;DHT22;7065;50.880;5.502;2022-10-24T14:16:29;18.60;99.90
13982;DHT22;7065;50.880;5.502;2022-10-24T14:19:24;18.50;99.90
13982;DHT22;7065;50.880;5.502;2022-10-24T14:21:50;18.40;99.90
13982;DHT22;7065;50.880;5.502;2022-10-24T14:24:19;18.30;99.90
13982;DHT22;7065;50.880;5.502;2022-10-24T14:26:47;17.90;99.90
13982;DHT22;7065;50.880;5.502;2022-10-24T14:29:28;17.10;99.90
13982;DHT22;7065;50.880;5.502;2022-10-24T14:32:02;16.40;99.90
13982;DHT22;7065;50.880;5.502;2022-10-24T14:34:29;16.00;99.90
13982;DHT22;7065;50.880;5.502;2022-10-24T14:37:00;15.80;99.90
13982;DHT22;7065;50.880;5.502;2022-10-24T14:39:28;15.60;99.90
13982;DHT22;7065;50.880;5.502;2022-10-24T14:41:54;15.50;99.90
13982;DHT22;7065;50.880;5.502;2022-10-24T14:44:21;15.40;99.90
13982;DHT22;7065;50.880;5.502;2022-10-24T14:47:05;15.30;99.90
13982;DHT22;7065;50.880;5.502;2022-10-24T14:49:35;15.30;99.90
13982;DHT22;7065;50.880;5.502;2022-10-24T14:52:16;15.30;99.90
13982;DHT22;7065;50.880;5.502;2022-10-24T14:55:15;15.30;99.90
13982;DHT22;7065;50.880;5.502;2022-10-24T14:57:47;15.30;99.90
13982;DHT22;7065;50.880;5.502;2022-10-24T15:00:39;15.40;99.90
13982;DHT22;7065;50.880;5.502;2022-10-24T15:03:06;15.40;99.90
13982;DHT22;7065;50.880;5.502;2022-10-24T15:05:33;15.50;99.90
13982;DHT22;7065;50.880;5.502;2022-10-24T15:10:39;15.90;99.90
13982;DHT22;7065;50.880;5.502;2022-10-24T15:13:14;16.00;99.90
13982;DHT22;7065;50.880;5.502;2022-10-24T15:15:56;16.20;99.90
13982;DHT22;7065;50.880;5.502;2022-10-24T15:18:24;16.40;99.90
13982;DHT22;7065;50.880;5.502;2022-10-24T15:21:21;16.40;99.90
13982;DHT22;7065;50.880;5.502;2022-10-24T15:23:50;16.50;99.90
13982;DHT22;7065;50.880;5.502;2022-10-24T15:31:27;16.70;99.90
13982;DHT22;7065;50.880;5.502;2022-10-24T15:33:54;16.70;99.90
13982;DHT22;7065;50.880;5.502;2022-10-24T15:36:21;16.60;99.90
13982;DHT22;7065;50.880;5.502;2022-10-24T15:38:48;16.60;99.90
13982;DHT22;7065;50.880;5.502;2022-10-24T15:41:17;16.60;99.90
13982;DHT22;7065;50.880;5.502;2022-10-24T15:43:43;16.50;99.90
13982;DHT22;7065;50.880;5.502;2022-10-24T15:46:08;16.40;99.90
13982;DHT22;7065;50.880;5.502;2022-10-24T15:48:34;16.40;99.90
13982;DHT22;7065;50.880;5.502;2022-10-24T15:51:00;16.30;99.90
13982;DHT22;7065;50.880;5.502;2022-10-24T15:53:26;16.30;99.90
13982;DHT22;7065;50.880;5.502;2022-10-24T15:55:51;16.20;99.90
13982;DHT22;7065;50.880;5.502;2022-10-24T15:58:17;16.20;99.90
13982;DHT22;7065;50.880;5.502;2022-10-24T16:00:44;16.20;99.90
13982;DHT22;7065;50.880;5.502;2022-10-24T16:03:14;16.20;99.90
13982;DHT22;7065;50.880;5.502;2022-10-24T16:05:44;16.20;99.90
13982;DHT22;7065;50.880;5.502;2022-10-24T16:08:15;16.20;99.90
13982;DHT22;7065;50.880;5.502;2022-10-24T16:10:43;16.20;99.90
13982;DHT22;7065;50.880;5.502;2022-10-24T16:13:11;16.10;99.90
13982;DHT22;7065;50.880;5.502;2022-10-24T16:15:38;16.00;99.90
13982;DHT22;7065;50.880;5.502;2022-10-24T16:18:04;16.00;99.90
13982;DHT22;7065;50.880;5.502;2022-10-24T16:20:30;15.90;99.90
13982;DHT22;7065;50.880;5.502;2022-10-24T16:22:56;15.90;99.90
13982;DHT22;7065;50.880;5.502;2022-10-24T16:25:27;15.90;99.90
13982;DHT22;7065;50.880;5.502;2022-10-24T16:27:53;15.90;99.90
13982;DHT22;7065;50.880;5.502;2022-10-24T16:30:21;16.00;99.90
13982;DHT22;7065;50.880;5.502;2022-10-24T16:32:48;15.90;99.90
13982;DHT22;7065;50.880;5.502;2022-10-24T16:35:22;15.80;99.90
13982;DHT22;7065;50.880;5.502;2022-10-24T16:37:49;15.80;99.90
13982;DHT22;7065;50.880;5.502;2022-10-24T16:40:15;15.80;99.90
13982;DHT22;7065;50.880;5.502;2022-10-24T16:42:41;15.80;99.90
13982;DHT22;7065;50.880;5.502;2022-10-24T16:45:07;15.70;99.90
13982;DHT22;7065;50.880;5.502;2022-10-24T16:47:33;15.70;99.90
13982;DHT22;7065;50.880;5.502;2022-10-24T16:49:59;15.70;99.90
13982;DHT22;7065;50.880;5.502;2022-10-24T16:52:26;15.60;99.90
13982;DHT22;7065;50.880;5.502;2022-10-24T16:54:53;15.60;99.90
13982;DHT22;7065;50.880;5.502;2022-10-24T16:57:22;15.50;99.90
13982;DHT22;7065;50.880;5.502;2022-10-24T16:59:49;15.50;99.90
13982;DHT22;7065;50.880;5.502;2022-10-24T17:02:16;15.50;99.90
13982;DHT22;7065;50.880;5.502;2022-10-24T17:04:41;15.50;99.90
13982;DHT22;7065;50.880;5.502;2022-10-24T17:07:08;15.40;99.90
13982;DHT22;7065;50.880;5.502;2022-10-24T17:09:34;15.30;99.90
13982;DHT22;7065;50.880;5.502;2022-10-24T17:12:00;15.30;99.90
13982;DHT22;7065;50.880;5.502;2022-10-24T17:14:27;15.20;99.90
13982;DHT22;7065;50.880;5.502;2022-10-24T17:16:52;15.30;99.90
13982;DHT22;7065;50.880;5.502;2022-10-24T17:19:18;15.30;99.90
13982;DHT22;7065;50.880;5.502;2022-10-24T17:21:46;15.30;99.90
13982;DHT22;7065;50.880;5.502;2022-10-24T17:24:14;15.20;99.90
13982;DHT22;7065;50.880;5.502;2022-10-24T17:26:40;15.20;99.90
13982;DHT22;7065;50.880;5.502;2022-10-24T17:29:06;15.20;99.90
13982;DHT22;7065;50.880;5.502;2022-10-24T17:31:34;15.20;99.90
13982;DHT22;7065;50.880;5.502;2022-10-24T17:34:00;15.20;99.90
13982;DHT22;7065;50.880;5.502;2022-10-24T17:36:32;15.20;99.90
13982;DHT22;7065;50.880;5.502;2022-10-24T17:39:11;15.30;99.90
13982;DHT22;7065;50.880;5.502;2022-10-24T17:41:39;15.20;99.90
13982;DHT22;7065;50.880;5.502;2022-10-24T17:44:09;15.30;99.90
13982;DHT22;7065;50.880;5.502;2022-10-24T17:46:36;15.20;99.90
13982;DHT22;7065;50.880;5.502;2022-10-24T17:49:02;15.20;99.90
13982;DHT22;7065;50.880;5.502;2022-10-24T17:51:28;15.20;99.90
13982;DHT22;7065;50.880;5.502;2022-10-24T17:54:01;15.20;99.90
13982;DHT22;7065;50.880;5.502;2022-10-24T17:56:27;15.20;99.90
13982;DHT22;7065;50.880;5.502;2022-10-24T17:58:53;15.10;99.90
13982;DHT22;7065;50.880;5.502;2022-10-24T18:01:19;15.00;99.90
13982;DHT22;7065;50.880;5.502;2022-10-24T18:03:45;15.00;99.90
13982;DHT22;7065;50.880;5.502;2022-10-24T18:06:10;14.90;99.90
13982;DHT22;7065;50.880;5.502;2022-10-24T18:08:37;14.90;99.90
13982;DHT22;7065;50.880;5.502;2022-10-24T18:11:04;14.90;99.90
13982;DHT22;7065;50.880;5.502;2022-10-24T18:13:30;14.90;99.90
13982;DHT22;7065;50.880;5.502;2022-10-24T18:15:57;14.90;99.90
13982;DHT22;7065;50.880;5.502;2022-10-24T18:18:23;14.90;99.90
13982;DHT22;7065;50.880;5.502;2022-10-24T18:20:49;14.80;99.90
13982;DHT22;7065;50.880;5.502;2022-10-24T18:23:15;14.80;99.90
13982;DHT22;7065;50.880;5.502;2022-10-24T18:25:41;14.70;99.90
13982;DHT22;7065;50.880;5.502;2022-10-24T18:28:06;14.70;99.90
13982;DHT22;7065;50.880;5.502;2022-10-24T18:30:32;14.60;99.90
13982;DHT22;7065;50.880;5.502;2022-10-24T18:32:59;14.60;99.90
13982;DHT22;7065;50.880;5.502;2022-10-24T18:35:25;14.70;99.90
13982;DHT22;7065;50.880;5.502;2022-10-24T18:37:53;14.80;99.90